Time;durP1;ratioP1;P1;durP2;ratioP2;P2;SDS_P1;SDS_P2;PMS_P1;PMS_P2;Temp;Humidity;BMP_temperature;BMP_pressure;BME280_temperature;BME280_humidity;BME280_pressure;Samples;Min_cycle;Max_cycle;Signal;HPM_P1;HPM_P2
2022/01/24 00:02:27;;;;;;;7.03;3.70;;;;;;;5.03;86.11;103430.59;4999987;28;20060;-47
2022/01/24 00:04:53;;;;;;;10.68;3.50;;;;;;;5.03;86.12;103427.94;4994345;28;20065;-48
2022/01/24 00:07:21;;;;;;;7.53;3.80;;;;;;;5.06;86.49;103432.94;5000538;28;20018;-48
2022/01/24 00:09:48;;;;;;;6.85;3.60;;;;;;;5.07;86.61;103430.13;5001661;28;20223;-47
2022/01/24 00:12:28;;;;;;;4.78;3.60;;;;;;;5.08;86.36;103433.63;5000178;28;20037;-47
2022/01/24 00:15:19;;;;;;;8.50;3.60;;;;;;;5.05;86.99;103426.78;5001784;28;20486;-47
2022/01/24 00:17:51;;;;;;;9.82;4.28;;;;;;;5.05;86.25;103424.13;4999981;28;20398;-47
2022/01/24 00:28:24;;;;;;;7.90;3.47;;;;;;;5.07;86.28;103435.44;5001911;28;19923;-47
2022/01/24 00:30:50;;;;;;;9.00;4.60;;;;;;;5.05;86.98;103432.09;5005354;28;20022;-47
2022/01/24 00:33:18;;;;;;;7.32;4.20;;;;;;;5.02;86.50;103429.72;5007231;28;20033;-47
2022/01/24 00:35:44;;;;;;;7.68;4.13;;;;;;;5.03;86.44;103438.56;5003507;28;20061;-47
2022/01/24 00:38:09;;;;;;;7.50;3.63;;;;;;;5.03;86.42;103433.25;5009661;28;20053;-47
2022/01/24 00:40:40;;;;;;;7.55;3.33;;;;;;;5.06;86.47;103425.81;5004888;28;20026;-47
2022/01/24 00:43:34;;;;;;;6.75;4.03;;;;;;;5.08;86.74;103436.28;5006483;28;20415;-47
2022/01/24 00:46:08;;;;;;;6.78;3.35;;;;;;;5.09;86.67;103436.13;5004325;28;20532;-47
2022/01/24 00:48:58;;;;;;;7.30;3.67;;;;;;;5.12;86.44;103433.19;5005356;28;20026;-47
2022/01/24 00:56:50;;;;;;;6.80;3.75;;;;;;;5.15;86.07;103435.53;5003303;28;20029;-47
2022/01/24 00:59:16;;;;;;;7.18;4.00;;;;;;;5.15;85.90;103432.06;5004203;28;20037;-47
2022/01/24 01:01:41;;;;;;;8.05;3.95;;;;;;;5.14;86.30;103433.03;5004593;28;20029;-47
2022/01/24 01:04:06;;;;;;;7.43;4.22;;;;;;;5.16;86.27;103439.03;5002769;28;20025;-46
2022/01/24 01:06:32;;;;;;;8.07;3.75;;;;;;;5.15;86.37;103440.84;5032906;28;20041;-48
2022/01/24 01:19:57;;;;;;;;;;;;;;;4.90;88.38;103433.56;5002567;28;20107;-48
2022/01/24 01:22:22;;;;;;;8.20;3.55;;;;;;;4.96;88.60;103432.97;5004804;28;20369;-47
2022/01/24 01:24:52;;;;;;;8.45;3.97;;;;;;;4.99;87.62;103437.97;5001136;28;20040;-48
2022/01/24 01:27:24;;;;;;;9.23;4.03;;;;;;;5.00;88.50;103439.66;5005231;28;20037;-49
2022/01/24 01:29:59;;;;;;;7.80;4.15;;;;;;;5.02;88.12;103434.19;5004512;28;20491;-47
2022/01/24 01:32:55;;;;;;;6.60;3.30;;;;;;;5.04;88.10;103429.59;5001147;28;20018;-47
2022/01/24 01:56:26;;;;;;;8.88;4.45;;;;;;;5.20;87.55;103431.59;5002436;28;20036;-47
2022/01/24 01:58:52;;;;;;;7.53;3.72;;;;;;;5.16;88.45;103428.41;5001792;28;20038;-47
2022/01/24 02:01:17;;;;;;;7.88;3.80;;;;;;;5.15;87.87;103430.22;5001738;28;20026;-48
2022/01/24 02:03:43;;;;;;;7.30;3.40;;;;;;;5.13;88.34;103434.84;4999370;28;20049;-47
2022/01/24 02:06:08;;;;;;;9.52;4.72;;;;;;;5.13;88.56;103424.22;5006010;28;20029;-48
2022/01/24 02:08:34;;;;;;;7.40;3.67;;;;;;;5.15;88.12;103424.91;5002292;28;20029;-47
2022/01/24 02:11:00;;;;;;;8.18;4.35;;;;;;;5.19;87.83;103425.44;5004606;28;20030;-47
2022/01/24 02:13:28;;;;;;;6.82;3.83;;;;;;;5.21;87.54;103426.16;5002589;28;20025;-48
2022/01/24 02:21:11;;;;;;;7.88;3.85;;;;;;;5.18;87.83;103407.00;5001924;28;20026;-47
2022/01/24 02:23:46;;;;;;;6.45;3.10;;;;;;;5.15;87.92;103411.63;5002114;28;20017;-47
2022/01/24 02:26:17;;;;;;;6.68;3.22;;;;;;;5.13;88.41;103408.28;4999625;28;20476;-47
2022/01/24 02:33:51;;;;;;;7.50;4.13;;;;;;;5.19;88.18;103406.84;4999684;28;20557;-47
2022/01/24 02:36:19;;;;;;;10.40;4.07;;;;;;;5.22;87.40;103403.09;5000914;28;20038;-46
2022/01/24 02:49:30;;;;;;;9.15;4.00;;;;;;;5.26;87.97;103407.13;4997025;28;20094;-50
2022/01/24 02:52:12;;;;;;;8.07;3.33;;;;;;;5.24;87.80;103406.44;4998968;28;20036;-47
2022/01/24 02:54:39;;;;;;;8.18;3.47;;;;;;;5.27;87.95;103406.97;4997266;28;20392;-47
2022/01/24 02:57:06;;;;;;;7.47;3.75;;;;;;;5.28;87.51;103402.47;5001075;28;20561;-47
2022/01/24 02:59:33;;;;;;;5.90;3.50;;;;;;;5.28;87.44;103397.16;5000359;28;20089;-48
2022/01/24 03:01:58;;;;;;;6.72;3.40;;;;;;;5.29;87.24;103398.84;5001754;28;20480;-47
2022/01/24 03:04:24;;;;;;;6.18;3.40;;;;;;;5.30;87.38;103395.19;5001121;28;20034;-47
2022/01/24 03:06:49;;;;;;;7.60;3.70;;;;;;;5.29;87.36;103393.53;5000019;28;20571;-47
2022/01/24 03:09:16;;;;;;;8.93;3.83;;;;;;;5.30;87.33;103400.50;5031680;28;20034;-47
2022/01/24 03:12:03;;;;;;;7.75;3.67;;;;;;;5.30;87.23;103401.34;5001716;28;20491;-47
2022/01/24 03:14:33;;;;;;;6.95;3.95;;;;;;;5.33;87.19;103397.53;5000752;28;20391;-49
2022/01/24 03:16:59;;;;;;;10.10;4.45;;;;;;;5.33;87.02;103406.34;5000843;28;20046;-47
2022/01/24 03:19:24;;;;;;;8.40;3.42;;;;;;;5.34;87.13;103405.38;4997720;28;20419;-47
2022/01/24 03:21:51;;;;;;;10.30;5.07;;;;;;;5.36;86.88;103405.22;5000048;28;20037;-47
2022/01/24 03:24:17;;;;;;;10.75;4.50;;;;;;;5.33;87.70;103392.22;5002397;28;20460;-47
2022/01/24 03:26:42;;;;;;;8.82;4.18;;;;;;;5.33;87.50;103397.53;4999360;28;20031;-47
2022/01/24 03:29:08;;;;;;;7.15;3.30;;;;;;;5.34;87.54;103399.22;5003028;28;20499;-47
2022/01/24 03:31:35;;;;;;;11.02;4.00;;;;;;;5.34;87.61;103399.22;4999479;28;20380;-48
2022/01/24 03:34:02;;;;;;;8.48;4.00;;;;;;;5.26;91.72;103404.44;5001546;28;20030;-48
2022/01/24 03:36:28;;;;;;;12.30;4.72;;;;;;;5.32;89.69;103407.34;5000488;28;20193;-48
2022/01/24 03:38:53;;;;;;;13.38;5.32;;;;;;;5.35;89.45;103401.72;4998711;28;20794;-47
2022/01/24 03:41:19;;;;;;;12.57;5.20;;;;;;;5.37;89.44;103401.56;5001756;28;20030;-48
2022/01/24 03:43:44;;;;;;;9.77;4.70;;;;;;;5.39;88.59;103400.47;5029309;28;20077;-48
2022/01/24 03:49:19;;;;;;;10.20;5.53;;;;;;;5.39;90.40;103403.13;4981154;28;20042;-48
2022/01/24 03:54:23;;;;;;;10.38;4.68;;;;;;;5.33;93.59;103400.19;4995366;28;20046;-47
2022/01/24 03:56:48;;;;;;;10.77;4.93;;;;;;;5.30;94.40;103401.34;4995334;28;20690;-48
2022/01/24 03:59:14;;;;;;;11.35;5.10;;;;;;;5.28;95.24;103399.81;5000032;28;20028;-47
2022/01/24 04:01:39;;;;;;;8.65;4.80;;;;;;;5.30;94.10;103397.84;4997172;28;20482;-48
2022/01/24 04:04:05;;;;;;;11.15;4.57;;;;;;;5.33;93.58;103398.38;4981355;28;20038;-47
2022/01/24 04:06:30;;;;;;;8.15;4.35;;;;;;;5.34;93.55;103392.06;4970721;28;20110;-47
2022/01/24 04:08:55;;;;;;;10.10;4.97;;;;;;;5.37;93.42;103396.25;4985205;28;20454;-48
2022/01/24 04:11:21;;;;;;;9.52;4.57;;;;;;;5.38;93.35;103400.59;4985600;28;20029;-47
2022/01/24 04:13:56;;;;;;;15.50;5.97;;;;;;;5.43;92.38;103401.84;4985306;28;20464;-47
2022/01/24 04:16:31;;;;;;;9.45;5.15;;;;;;;5.49;92.29;103397.72;4984546;28;20038;-47
2022/01/24 04:19:13;;;;;;;9.75;4.45;;;;;;;5.53;91.55;103403.59;4984719;28;20026;-47
2022/01/24 04:21:46;;;;;;;11.73;4.50;;;;;;;5.53;91.06;103393.78;4983113;28;20058;-47
2022/01/24 04:24:18;;;;;;;12.13;4.97;;;;;;;5.54;90.77;103394.63;4985013;28;20044;-47
2022/01/24 04:26:43;;;;;;;12.93;5.18;;;;;;;5.56;90.08;103392.63;4984581;28;20022;-47
2022/01/24 04:29:09;;;;;;;9.98;4.60;;;;;;;5.55;89.98;103390.97;4984073;28;20084;-47
2022/01/24 04:31:35;;;;;;;10.30;4.68;;;;;;;5.54;89.94;103392.78;4986289;28;20081;-48
2022/01/24 04:34:01;;;;;;;12.70;5.35;;;;;;;5.54;90.34;103392.78;4984810;28;20037;-47
2022/01/24 04:36:27;;;;;;;11.13;4.57;;;;;;;5.50;90.92;103388.75;4986823;28;20030;-47
2022/01/24 04:38:54;;;;;;;10.57;4.47;;;;;;;5.43;92.05;103393.03;4985033;28;20501;-47
2022/01/24 04:41:24;;;;;;;10.77;5.03;;;;;;;5.38;93.72;103395.25;4980836;28;20131;-47
2022/01/24 04:51:56;;;;;;;9.20;4.50;;;;;;;5.32;95.95;103391.41;4987634;28;20088;-47
2022/01/24 04:54:42;;;;;;;8.40;3.85;;;;;;;5.30;95.89;103392.53;4987485;28;20032;-47
2022/01/24 04:57:16;;;;;;;6.65;3.60;;;;;;;5.31;95.84;103391.53;4986232;28;20357;-47
2022/01/24 04:59:44;;;;;;;9.70;4.70;;;;;;;5.34;95.17;103396.56;4985557;28;20124;-47
2022/01/24 05:02:10;;;;;;;8.93;4.18;;;;;;;5.32;96.28;103398.53;4985624;28;20026;-48
2022/01/24 05:04:36;;;;;;;6.95;4.32;;;;;;;5.36;95.21;103397.25;4989649;28;20041;-47
2022/01/24 05:07:02;;;;;;;13.63;4.85;;;;;;;5.34;95.57;103394.72;4982931;28;20034;-47
2022/01/24 05:09:33;;;;;;;8.30;4.53;;;;;;;5.29;96.88;103397.00;4987556;28;20314;-49
2022/01/24 05:12:04;;;;;;;8.70;4.30;;;;;;;5.25;97.34;103389.50;4985255;28;20068;-47
2022/01/24 05:25:26;;;;;;;9.82;5.32;;;;;;;5.29;96.71;103409.47;4982970;28;20104;-49
2022/01/24 05:27:52;;;;;;;10.35;5.25;;;;;;;5.23;97.07;103408.25;4981757;28;20026;-49
2022/01/24 05:30:17;;;;;;;14.80;6.80;;;;;;;5.31;96.42;103404.84;4983084;28;20069;-47
2022/01/24 05:32:44;;;;;;;10.82;5.50;;;;;;;5.24;96.83;103409.09;4982974;28;20065;-48
2022/01/24 05:35:10;;;;;;;14.20;6.72;;;;;;;5.29;96.57;103412.13;4981293;28;20036;-47
2022/01/24 05:37:35;;;;;;;12.43;5.97;;;;;;;5.34;95.56;103407.19;4984068;28;20030;-47
2022/01/24 05:40:01;;;;;;;12.90;6.97;;;;;;;5.37;95.44;103412.22;4980371;28;20526;-47
2022/01/24 05:42:26;;;;;;;12.57;6.32;;;;;;;5.27;96.95;103406.97;4967475;28;20046;-49
2022/01/24 05:44:54;;;;;;;13.15;6.63;;;;;;;5.21;97.19;103412.88;4972754;28;20031;-47
2022/01/24 05:47:20;;;;;;;13.48;6.30;;;;;;;5.24;97.17;103415.22;4978595;28;20061;-47
2022/01/24 05:49:46;;;;;;;13.73;6.80;;;;;;;5.22;97.72;103424.34;4976980;28;20054;-47
2022/01/24 05:52:11;;;;;;;11.57;6.50;;;;;;;5.23;97.23;103423.34;4980350;28;20184;-47
2022/01/24 05:54:38;;;;;;;13.68;6.43;;;;;;;5.21;97.56;103414.69;4980387;28;20034;-48
2022/01/24 05:57:04;;;;;;;13.40;6.55;;;;;;;5.27;96.88;103422.06;4979600;28;20030;-49
2022/01/24 05:59:30;;;;;;;11.25;6.32;;;;;;;5.25;97.32;103421.38;4982226;28;20109;-47
2022/01/24 06:01:55;;;;;;;13.65;6.47;;;;;;;5.24;97.00;103425.03;4978452;28;20451;-48
2022/01/24 06:04:21;;;;;;;16.50;6.85;;;;;;;5.26;97.03;103428.38;4980309;28;20333;-47
2022/01/24 06:06:46;;;;;;;14.52;6.68;;;;;;;5.31;96.14;103426.94;4974988;28;20030;-46
2022/01/24 06:09:12;;;;;;;11.75;6.18;;;;;;;5.28;96.34;103431.72;4979435;28;20033;-47
2022/01/24 06:11:37;;;;;;;12.95;6.13;;;;;;;5.28;96.36;103431.72;4980280;28;20022;-47
2022/01/24 06:14:04;;;;;;;11.27;5.88;;;;;;;5.29;96.35;103434.22;4975866;28;20060;-47
2022/01/24 06:16:29;;;;;;;12.60;6.32;;;;;;;5.31;96.14;103434.91;4977951;28;20026;-50
2022/01/24 06:18:55;;;;;;;15.55;7.22;;;;;;;5.36;95.46;103434.47;4975598;28;20026;-47
2022/01/24 06:21:21;;;;;;;13.45;6.85;;;;;;;5.30;95.97;103435.91;4978492;28;20085;-47
2022/01/24 06:23:46;;;;;;;17.98;7.47;;;;;;;5.33;96.27;103432.09;4982021;28;20030;-47
2022/01/24 06:26:12;;;;;;;17.40;6.82;;;;;;;5.36;95.65;103434.47;4981122;28;20034;-47
2022/01/24 06:28:37;;;;;;;13.70;6.82;;;;;;;5.40;94.77;103438.53;4974148;28;20109;-48
2022/01/24 06:31:03;;;;;;;15.88;7.32;;;;;;;5.38;95.01;103443.97;4976477;28;20057;-47
2022/01/24 06:33:29;;;;;;;13.70;6.47;;;;;;;5.38;95.33;103453.75;4981270;28;20503;-47
2022/01/24 06:35:54;;;;;;;15.63;8.00;;;;;;;5.32;95.87;103451.69;4980966;28;20456;-48
2022/01/24 06:38:20;;;;;;;14.70;7.13;;;;;;;5.32;95.63;103449.03;4982072;28;20031;-47
2022/01/24 06:40:46;;;;;;;15.73;6.80;;;;;;;5.23;96.68;103455.25;4977058;28;20056;-47
2022/01/24 06:43:11;;;;;;;16.15;7.57;;;;;;;5.21;96.85;103446.59;4979283;28;20062;-48
2022/01/24 06:45:37;;;;;;;14.30;7.82;;;;;;;5.27;95.93;103459.28;4982359;28;20026;-47
2022/01/24 06:48:02;;;;;;;13.77;7.43;;;;;;;5.21;96.57;103463.38;4980035;28;20274;-47
2022/01/24 06:50:28;;;;;;;14.20;7.30;;;;;;;5.21;96.77;103462.53;4975258;28;20069;-47
2022/01/24 06:52:53;;;;;;;15.82;7.32;;;;;;;5.19;96.80;103467.97;4979459;28;20026;-47
2022/01/24 06:55:19;;;;;;;17.42;7.93;;;;;;;5.25;95.85;103459.44;4975474;28;20476;-47
2022/01/24 06:57:44;;;;;;;13.27;7.25;;;;;;;5.27;95.87;103462.78;4980797;28;20031;-47
2022/01/24 07:00:11;;;;;;;14.57;7.90;;;;;;;5.32;95.17;103465.81;4976471;28;20030;-47
2022/01/24 07:02:37;;;;;;;14.50;8.00;;;;;;;5.18;96.44;103478.75;4965713;28;20026;-47
2022/01/24 07:05:03;;;;;;;15.77;7.80;;;;;;;5.13;97.12;103472.06;4963126;28;20034;-47
2022/01/24 07:07:30;;;;;;;16.73;7.78;;;;;;;5.15;96.98;103475.41;4979387;28;20502;-47
2022/01/24 07:09:56;;;;;;;19.83;8.05;;;;;;;5.12;97.36;103477.53;4979327;28;20484;-49
2022/01/24 07:12:22;;;;;;;17.48;7.95;;;;;;;5.11;96.95;103476.69;4971425;28;20101;-47
2022/01/24 07:14:49;;;;;;;17.48;8.73;;;;;;;5.09;97.13;103476.00;4975544;28;20181;-47
2022/01/24 07:19:49;;;;;;;17.50;8.50;;;;;;;5.08;96.86;103476.97;4980602;28;20150;-49
2022/01/24 07:22:14;;;;;;;19.58;8.93;;;;;;;5.12;96.49;103480.19;4980669;28;20571;-47
2022/01/24 07:24:40;;;;;;;17.50;7.85;;;;;;;5.09;96.71;103477.81;4980374;28;20034;-48
2022/01/24 07:27:05;;;;;;;19.05;9.82;;;;;;;5.09;96.31;103475.16;4977804;28;20018;-47
2022/01/24 07:29:31;;;;;;;18.15;8.45;;;;;;;5.09;96.62;103476.00;4982414;28;20179;-47
2022/01/24 07:31:57;;;;;;;17.45;8.80;;;;;;;5.08;96.52;103474.31;4978860;28;20043;-46
2022/01/24 07:34:22;;;;;;;18.75;9.05;;;;;;;5.03;96.74;103494.34;4974900;28;20042;-47
2022/01/24 07:36:48;;;;;;;20.05;8.77;;;;;;;5.05;96.55;103479.94;4979360;28;20022;-47
2022/01/24 07:39:13;;;;;;;20.30;9.70;;;;;;;5.01;96.66;103483.84;4974469;28;20026;-47
2022/01/24 07:41:45;;;;;;;16.80;8.45;;;;;;;5.03;96.38;103487.22;4981127;28;20383;-47
2022/01/24 07:44:11;;;;;;;18.15;9.07;;;;;;;5.06;96.80;103478.13;4964738;28;20046;-47
2022/01/24 07:46:37;;;;;;;16.42;8.00;;;;;;;5.07;96.39;103480.63;4977500;28;20507;-47
2022/01/24 07:49:04;;;;;;;18.27;8.65;;;;;;;5.08;96.18;103481.47;4978381;28;20125;-48
2022/01/24 07:51:30;;;;;;;17.13;8.65;;;;;;;5.03;96.46;103481.91;4980314;28;20109;-48
2022/01/24 07:53:55;;;;;;;18.63;8.80;;;;;;;5.00;97.16;103495.47;4978445;28;20113;-47
2022/01/24 07:56:21;;;;;;;17.58;8.68;;;;;;;5.00;97.53;103486.66;4979057;28;20029;-47
2022/01/24 07:58:46;;;;;;;21.40;9.57;;;;;;;5.06;97.17;103491.41;4979886;28;20026;-47
2022/01/24 08:01:14;;;;;;;22.95;9.50;;;;;;;5.23;95.81;103493.31;4977711;28;20039;-47
2022/01/24 08:03:40;;;;;;;20.33;9.50;;;;;;;5.26;95.36;103481.53;4980422;28;20467;-47
2022/01/24 08:06:06;;;;;;;20.92;10.95;;;;;;;5.29;95.31;103481.25;4964084;28;20069;-47
2022/01/24 08:08:31;;;;;;;23.05;11.05;;;;;;;5.37;94.62;103484.00;4980438;28;20022;-47
2022/01/24 08:10:57;;;;;;;17.50;9.57;;;;;;;5.37;94.82;103489.31;4978327;28;20092;-47
2022/01/24 08:13:22;;;;;;;21.23;9.55;;;;;;;5.36;94.67;103490.28;4979188;28;20026;-47
2022/01/24 08:15:48;;;;;;;20.23;9.65;;;;;;;5.41;94.39;103490.72;4979272;28;20034;-47
2022/01/24 08:18:14;;;;;;;21.20;10.45;;;;;;;5.40;94.25;103499.69;4976962;28;20607;-47
2022/01/24 08:20:41;;;;;;;18.02;8.90;;;;;;;5.45;93.50;103492.09;4978888;28;20085;-47
2022/01/24 08:23:08;;;;;;;21.17;9.48;;;;;;;5.52;93.32;103498.47;4977400;28;20034;-48
2022/01/24 08:25:34;;;;;;;17.40;8.45;;;;;;;5.55;93.59;103498.19;4979959;28;20030;-47
2022/01/24 08:27:59;;;;;;;21.85;9.90;;;;;;;5.55;93.36;103500.00;4977407;28;20057;-48
2022/01/24 08:30:25;;;;;;;22.65;10.00;;;;;;;5.59;92.67;103499.59;4977890;28;20137;-47
2022/01/24 08:32:50;;;;;;;21.98;9.57;;;;;;;5.54;93.03;103496.50;4976240;28;20026;-47
2022/01/24 08:35:18;;;;;;;20.90;9.70;;;;;;;5.58;93.30;103502.41;4974833;28;20294;-47
2022/01/24 08:37:44;;;;;;;19.60;8.68;;;;;;;5.59;93.10;103496.09;4973781;28;20034;-47
2022/01/24 08:40:19;;;;;;;21.25;9.55;;;;;;;5.64;92.34;103497.31;4973022;28;20421;-47
2022/01/24 08:42:54;;;;;;;19.20;9.68;;;;;;;5.59;93.09;103499.59;4975878;28;20041;-47
2022/01/24 08:48:04;;;;;;;21.00;10.15;;;;;;;5.55;93.61;103492.84;4977076;28;20099;-47
2022/01/24 08:50:30;;;;;;;20.75;10.13;;;;;;;5.57;93.31;103496.25;4979343;28;21089;-47
2022/01/24 08:53:03;;;;;;;24.45;10.52;;;;;;;5.61;92.99;103488.78;4981168;28;20630;-47
2022/01/24 08:55:33;;;;;;;20.60;9.63;;;;;;;5.57;93.84;103488.25;4981989;28;20533;-47
2022/01/24 08:58:00;;;;;;;21.60;10.07;;;;;;;5.59;93.90;103488.13;4981336;28;20611;-46
2022/01/24 09:00:27;;;;;;;20.10;9.77;;;;;;;5.60;93.64;103490.63;4981997;28;20093;-47
2022/01/24 09:02:53;;;;;;;20.48;10.18;;;;;;;5.55;94.78;103487.53;4981489;28;20109;-47
2022/01/24 09:05:23;;;;;;;24.63;11.15;;;;;;;5.47;95.69;103493.63;4981500;28;20428;-47
2022/01/24 09:07:50;;;;;;;25.17;11.02;;;;;;;5.56;95.27;103494.53;4982620;28;20022;-47
2022/01/24 09:10:16;;;;;;;20.02;9.88;;;;;;;5.63;94.86;103489.47;4981227;28;20472;-47
2022/01/24 09:12:42;;;;;;;24.50;11.13;;;;;;;5.67;94.71;103490.84;4982927;28;20026;-47
2022/01/24 09:15:08;;;;;;;20.85;9.95;;;;;;;5.71;94.21;103487.75;4980725;28;20034;-48
2022/01/24 09:17:35;;;;;;;24.42;12.18;;;;;;;5.74;94.11;103483.94;4982865;28;20061;-47
2022/01/24 09:20:01;;;;;;;25.20;10.13;;;;;;;5.72;94.68;103481.44;4967275;28;20034;-47
2022/01/24 09:22:27;;;;;;;20.75;10.07;;;;;;;5.77;94.52;103486.31;4981055;28;20021;-47
2022/01/24 09:24:53;;;;;;;23.35;11.20;;;;;;;5.80;94.31;103482.53;4981544;28;20408;-47
2022/01/24 09:27:18;;;;;;;29.77;11.80;;;;;;;5.82;94.26;103483.22;4981031;28;20117;-47
2022/01/24 09:29:44;;;;;;;24.60;10.98;;;;;;;5.81;94.50;103479.72;4982374;28;20026;-47
2022/01/24 09:32:10;;;;;;;23.27;10.68;;;;;;;5.81;94.38;103479.72;4980362;28;20033;-47
2022/01/24 09:34:36;;;;;;;19.75;10.25;;;;;;;5.84;94.05;103476.75;4978608;28;20049;-47
2022/01/24 09:37:02;;;;;;;22.67;10.45;;;;;;;5.83;94.38;103480.41;4979716;28;20134;-47
2022/01/24 09:39:27;;;;;;;19.05;9.40;;;;;;;5.95;93.59;103483.72;4979679;28;20030;-47
2022/01/24 09:41:53;;;;;;;20.08;9.77;;;;;;;5.92;94.22;103481.34;4980826;28;20484;-47
2022/01/24 09:44:19;;;;;;;23.17;10.10;;;;;;;5.90;94.34;103478.81;4980580;28;20296;-47
2022/01/24 09:46:46;;;;;;;19.80;9.68;;;;;;;5.89;95.28;103482.44;4981960;28;20038;-47
2022/01/24 09:49:12;;;;;;;16.40;8.88;;;;;;;5.94;94.62;103488.22;4979795;28;20110;-47
2022/01/24 09:51:38;;;;;;;18.27;9.75;;;;;;;5.98;93.85;103483.41;4982802;28;20030;-47
2022/01/24 09:54:05;;;;;;;15.73;7.68;;;;;;;5.99;93.42;103474.44;5014067;22;20101;-48
2022/01/24 09:56:31;;;;;;;17.80;8.23;;;;;;;5.94;93.71;103482.06;5009057;28;20041;-49
2022/01/24 09:58:57;;;;;;;16.35;8.77;;;;;;;5.90;93.98;103478.00;5009458;28;20017;-50
2022/01/24 10:01:23;;;;;;;18.98;8.85;;;;;;;5.92;93.62;103473.34;5009626;28;20399;-47
2022/01/24 10:04:09;;;;;;;20.63;8.32;;;;;;;5.90;93.60;103475.34;4999774;28;20088;-48
2022/01/24 10:06:56;;;;;;;18.33;9.25;;;;;;;5.92;93.02;103468.03;5004594;28;20032;-47
2022/01/24 10:09:40;;;;;;;17.10;8.00;;;;;;;5.99;92.96;103472.63;5010050;28;20079;-48
2022/01/24 10:16:24;;;;;;;13.05;8.05;;;;;;;6.09;92.81;103474.34;5006130;28;20241;-48
2022/01/24 10:17:47;;;;;;;15.63;7.35;;;;;;;6.05;92.63;103458.69;5006292;28;20121;-48
2022/01/24 10:20:29;;;;;;;13.27;6.78;;;;;;;6.07;92.19;103461.19;5008639;28;20462;-47
2022/01/24 10:23:09;;;;;;;12.98;6.40;;;;;;;6.14;91.85;103470.28;5007168;28;20048;-47
2022/01/24 10:25:48;;;;;;;12.05;6.78;;;;;;;6.18;91.96;103454.81;5004607;28;20459;-48
2022/01/24 10:28:22;;;;;;;13.02;6.90;;;;;;;6.19;91.30;103452.00;5003573;28;20025;-47
2022/01/24 10:31:02;;;;;;;13.85;7.18;;;;;;;6.09;91.85;103453.06;5001946;28;20562;-48
2022/01/24 10:33:28;;;;;;;12.15;6.25;;;;;;;6.15;91.97;103461.28;5006385;28;20048;-47
2022/01/24 10:35:53;;;;;;;14.50;7.40;;;;;;;6.12;91.69;103453.63;5006674;28;20029;-48
2022/01/24 10:41:10;;;;;;;14.02;7.20;;;;;;;6.15;91.18;103463.97;5004471;28;20022;-47
2022/01/24 10:43:38;;;;;;;12.57;6.50;;;;;;;6.15;91.54;103466.63;5009949;28;20475;-49
2022/01/24 10:46:04;;;;;;;11.25;6.03;;;;;;;6.13;90.97;103463.28;5004341;28;20044;-47
2022/01/24 10:48:36;;;;;;;16.80;6.78;;;;;;;6.10;91.30;103460.06;5000111;28;20034;-49
2022/01/24 10:51:21;;;;;;;11.25;5.57;;;;;;;6.15;91.29;103455.13;5004115;28;20036;-49
2022/01/24 10:53:54;;;;;;;12.75;5.53;;;;;;;6.23;91.11;103460.50;5005704;28;20026;-47
2022/01/24 10:56:40;;;;;;;11.73;6.05;;;;;;;6.15;90.96;103455.97;5007474;28;20025;-49
2022/01/24 10:59:06;;;;;;;11.07;5.80;;;;;;;6.22;91.13;103450.84;5008102;28;20116;-49
2022/01/24 11:01:33;;;;;;;11.45;5.15;;;;;;;6.19;90.61;103452.00;5006581;28;20367;-50
2022/01/24 11:04:01;;;;;;;8.40;5.32;;;;;;;6.15;90.68;103447.16;5006086;28;20037;-50
2022/01/24 11:06:33;;;;;;;12.07;5.25;;;;;;;5.95;92.66;103444.63;5008316;28;20215;-49
2022/01/24 11:09:14;;;;;;;8.98;4.93;;;;;;;5.88;93.26;103448.00;5004329;28;20049;-50
2022/01/24 11:11:41;;;;;;;9.30;4.68;;;;;;;6.02;92.43;103444.84;5004428;28;20426;-47
2022/01/24 11:14:09;;;;;;;7.35;4.43;;;;;;;6.10;91.90;103447.56;5007958;28;20034;-48
2022/01/24 11:16:37;;;;;;;10.13;4.70;;;;;;;6.16;91.73;103441.66;5008000;28;20074;-48
2022/01/24 11:19:08;;;;;;;10.07;5.10;;;;;;;6.20;90.88;103445.69;5003394;28;20125;-48
2022/01/24 11:21:33;;;;;;;9.73;5.07;;;;;;;6.20;90.70;103443.03;5008466;28;20431;-48
2022/01/24 11:24:04;;;;;;;8.25;4.28;;;;;;;6.19;90.65;103444.03;5017554;28;20129;-47
2022/01/24 11:26:30;;;;;;;8.45;4.95;;;;;;;6.03;91.58;103442.03;5007992;28;20033;-47
2022/01/24 11:28:56;;;;;;;7.15;3.92;;;;;;;6.15;91.51;103442.66;5003589;28;20061;-49
2022/01/24 11:31:34;;;;;;;9.98;4.38;;;;;;;6.15;91.15;103429.34;5020373;28;20060;-47
2022/01/24 11:34:08;;;;;;;8.70;4.43;;;;;;;6.02;91.97;103427.06;5003639;28;20030;-47
2022/01/24 11:36:39;;;;;;;7.05;3.92;;;;;;;6.14;91.75;103425.00;5007764;28;20044;-47
2022/01/24 11:39:06;;;;;;;8.43;4.30;;;;;;;6.20;91.33;103421.72;4998952;28;20030;-49
2022/01/24 11:41:35;;;;;;;8.68;3.85;;;;;;;6.13;91.04;103414.53;5005529;28;20104;-47
2022/01/24 11:44:15;;;;;;;7.60;3.92;;;;;;;6.12;91.41;103415.50;5005491;28;20030;-48
2022/01/24 11:46:48;;;;;;;11.15;4.53;;;;;;;6.13;90.80;103411.88;5003749;28;20049;-47
2022/01/24 11:49:13;;;;;;;7.00;4.28;;;;;;;6.21;90.99;103406.59;5008051;28;20038;-48
2022/01/24 11:51:44;;;;;;;5.93;3.65;;;;;;;6.16;90.55;103408.88;5008914;28;20036;-48
2022/01/24 11:54:31;;;;;;;6.75;3.85;;;;;;;6.06;89.78;103400.97;5008027;28;20028;-49
2022/01/24 11:57:17;;;;;;;6.70;3.40;;;;;;;6.06;89.83;103396.47;4995892;28;20025;-50
2022/01/24 11:59:43;;;;;;;7.30;3.42;;;;;;;6.15;90.18;103389.41;5000394;28;20121;-49
2022/01/24 12:02:15;;;;;;;7.38;3.28;;;;;;;6.09;89.90;103384.69;5006130;28;20030;-49
2022/01/24 12:05:08;;;;;;;5.15;3.08;;;;;;;6.04;89.15;103387.81;5008010;28;20057;-47
2022/01/24 12:08:00;;;;;;;4.40;2.55;;;;;;;6.02;88.31;103381.81;5002921;28;20037;-50
2022/01/24 12:10:36;;;;;;;4.00;2.42;;;;;;;6.09;88.35;103387.34;5007759;28;20213;-49
2022/01/24 12:13:06;;;;;;;3.80;2.38;;;;;;;6.11;88.28;103382.75;5002944;28;20531;-48
2022/01/24 12:15:40;;;;;;;4.15;2.58;;;;;;;6.16;88.73;103384.94;5005122;28;20041;-49
2022/01/24 12:18:06;;;;;;;3.90;2.55;;;;;;;6.25;88.65;103387.47;5006061;28;20033;-51
2022/01/24 12:20:31;;;;;;;4.55;2.33;;;;;;;6.28;88.32;103392.53;5003104;28;20491;-48
2022/01/24 12:22:58;;;;;;;6.20;3.33;;;;;;;6.27;88.30;103388.16;5007648;28;20041;-49
2022/01/24 12:26:02;;;;;;;5.47;3.40;;;;;;;6.31;88.27;103380.72;5008129;28;20150;-48
2022/01/24 12:28:31;;;;;;;6.28;3.33;;;;;;;6.23;88.39;103383.31;5009209;28;20034;-48
2022/01/24 12:31:26;;;;;;;7.78;3.42;;;;;;;6.11;88.21;103385.41;5010217;28;20044;-51
2022/01/24 12:34:00;;;;;;;5.00;2.90;;;;;;;6.13;88.51;103386.06;4998376;28;20045;-47
2022/01/24 12:36:37;;;;;;;6.20;3.38;;;;;;;6.18;88.48;103375.78;5010009;28;20068;-48
2022/01/24 12:39:15;;;;;;;5.60;3.22;;;;;;;6.19;88.67;103382.78;5008645;28;20058;-47
2022/01/24 12:41:47;;;;;;;4.88;3.33;;;;;;;6.27;88.34;103372.19;5016962;28;20026;-47
2022/01/24 12:47:04;;;;;;;7.22;4.00;;;;;;;6.33;87.90;103376.06;5001351;28;20053;-51
2022/01/24 12:49:30;;;;;;;9.27;3.35;;;;;;;6.22;87.47;103373.66;5007086;28;20684;-48
2022/01/24 12:52:03;;;;;;;7.55;3.10;;;;;;;6.21;87.19;103367.50;5009042;28;20034;-49
2022/01/24 12:54:30;;;;;;;4.35;2.72;;;;;;;6.15;86.90;103359.31;5003885;28;20124;-49
2022/01/24 12:57:05;;;;;;;4.18;2.60;;;;;;;6.03;86.57;103359.53;5008544;28;20113;-49
2022/01/24 12:59:31;;;;;;;3.47;2.30;;;;;;;6.01;86.40;103366.84;5000900;28;20025;-49
2022/01/24 13:02:00;;;;;;;4.03;2.40;;;;;;;6.05;86.62;103356.72;5006115;28;20325;-49
2022/01/24 13:04:37;;;;;;;6.22;2.90;;;;;;;6.09;87.38;103363.41;5005503;28;20436;-49
2022/01/24 13:07:04;;;;;;;3.83;2.55;;;;;;;6.17;87.24;103366.13;5007089;28;20033;-51
2022/01/24 13:09:30;;;;;;;5.18;2.67;;;;;;;6.16;87.12;103368.97;5003943;28;20029;-52
2022/01/24 13:12:04;;;;;;;6.00;2.70;;;;;;;6.16;86.88;103371.63;5008584;28;20033;-51
2022/01/24 13:14:37;;;;;;;6.07;2.83;;;;;;;6.13;87.24;103374.59;5009052;28;20036;-50
2022/01/24 13:25:22;;;;;;;4.55;2.78;;;;;;;6.03;85.80;103380.00;5006019;28;20041;-50
2022/01/24 13:27:51;;;;;;;3.20;2.00;;;;;;;5.97;86.08;103386.78;5001916;28;20057;-49
2022/01/24 13:30:28;;;;;;;5.05;2.28;;;;;;;5.94;86.46;103379.09;5005094;28;20029;-47
2022/01/24 13:33:08;;;;;;;4.40;2.00;;;;;;;5.92;86.38;103373.06;5004382;28;20068;-49